createdAt,value
2023-03-04T00:00:54.529Z,0.00
2023-03-04T00:01:54.542Z,0.00
2023-03-04T00:02:55.641Z,0.00
2023-03-04T00:03:54.568Z,0.00
2023-03-04T00:04:54.696Z,0.00
2023-03-04T00:05:54.515Z,0.00
2023-03-04T00:06:54.495Z,0.00
2023-03-04T00:07:54.486Z,0.00
2023-03-04T00:08:54.539Z,0.00
2023-03-04T00:09:54.451Z,0.00
2023-03-04T00:10:54.503Z,0.00
2023-03-04T00:11:54.447Z,0.00
2023-03-04T00:12:54.482Z,0.00
2023-03-04T00:13:54.456Z,0.00
2023-03-04T00:14:54.515Z,0.00
2023-03-04T00:15:54.440Z,0.00
2023-03-04T00:16:54.399Z,0.00
2023-03-04T00:17:54.430Z,0.00
2023-03-04T00:18:54.428Z,0.00
2023-03-04T00:19:54.385Z,0.00
2023-03-04T00:20:54.388Z,0.00
2023-03-04T00:21:54.376Z,0.00
2023-03-04T00:22:54.395Z,0.00
2023-03-04T00:23:54.373Z,0.00
2023-03-04T00:24:54.377Z,0.00
2023-03-04T00:25:54.364Z,0.00
2023-03-04T00:26:54.359Z,0.00
2023-03-04T00:27:54.539Z,0.00
2023-03-04T00:28:54.324Z,0.00
2023-03-04T00:29:54.309Z,0.00
2023-03-04T00:30:54.296Z,0.00
2023-03-04T00:31:54.373Z,0.00
2023-03-04T00:32:54.427Z,0.00
2023-03-04T00:33:54.290Z,0.00
2023-03-04T00:34:54.326Z,0.00
2023-03-04T00:35:54.330Z,0.00
2023-03-04T00:36:54.268Z,0.00
2023-03-04T00:37:54.277Z,0.00
2023-03-04T00:38:54.267Z,0.00
2023-03-04T00:39:54.259Z,0.00
2023-03-04T00:40:54.858Z,0.00
2023-03-04T00:41:54.238Z,0.00
2023-03-04T00:42:54.224Z,0.00
2023-03-04T00:43:54.221Z,0.00
2023-03-04T00:44:54.187Z,0.00
2023-03-04T00:45:54.246Z,0.00
2023-03-04T00:46:54.195Z,0.00
2023-03-04T00:47:54.237Z,0.00
2023-03-04T00:48:54.170Z,0.00
2023-03-04T00:49:54.180Z,0.00
2023-03-04T00:50:54.260Z,0.00
2023-03-04T00:51:54.241Z,0.00
2023-03-04T00:52:54.183Z,0.00
2023-03-04T00:53:54.149Z,0.00
2023-03-04T00:54:54.153Z,0.00
2023-03-04T00:55:54.138Z,0.00
2023-03-04T00:56:54.149Z,0.00
2023-03-04T00:57:54.134Z,0.00
2023-03-04T00:58:54.094Z,0.00
2023-03-04T00:59:54.160Z,0.00
2023-03-04T01:00:54.086Z,0.00
2023-03-04T01:01:54.095Z,0.00
2023-03-04T01:02:54.084Z,0.00
2023-03-04T01:03:54.112Z,0.00
2023-03-04T01:04:54.059Z,0.00
2023-03-04T01:05:54.049Z,0.00
2023-03-04T01:06:54.028Z,0.00
2023-03-04T01:07:54.021Z,0.00
2023-03-04T01:08:54.035Z,0.00
2023-03-04T01:09:54.001Z,0.00
2023-03-04T01:10:54.010Z,0.00
2023-03-04T01:11:53.997Z,0.00
2023-03-04T01:12:53.987Z,0.00
2023-03-04T01:13:53.995Z,0.00
2023-03-04T01:14:53.997Z,0.00
2023-03-04T01:15:53.961Z,0.00
2023-03-04T01:16:53.993Z,0.00
2023-03-04T01:17:54.008Z,0.00
2023-03-04T01:18:53.930Z,0.00
2023-03-04T01:19:53.938Z,0.00
2023-03-04T01:20:53.927Z,0.00
2023-03-04T01:21:54.941Z,0.00
2023-03-04T01:22:53.909Z,0.00
2023-03-04T01:23:53.886Z,0.00
2023-03-04T01:24:53.899Z,0.00
2023-03-04T01:25:53.915Z,0.00
2023-03-04T01:26:53.929Z,0.00
2023-03-04T01:27:53.928Z,0.00
2023-03-04T01:28:53.856Z,0.00
2023-03-04T01:29:53.842Z,0.00
2023-03-04T01:30:53.886Z,0.00
2023-03-04T01:31:53.868Z,0.00
2023-03-04T01:32:53.862Z,0.00
2023-03-04T01:33:53.813Z,0.00
2023-03-04T01:34:53.804Z,0.00
2023-03-04T01:35:53.849Z,0.00
2023-03-04T01:36:53.799Z,0.00
2023-03-04T01:37:53.806Z,0.00
2023-03-04T01:38:53.768Z,0.00
2023-03-04T01:39:53.798Z,0.00
2023-03-04T01:40:53.767Z,0.00
2023-03-04T01:41:53.765Z,0.00
2023-03-04T01:42:53.752Z,0.00
2023-03-04T01:43:53.724Z,0.00
2023-03-04T01:44:53.762Z,0.00
2023-03-04T01:45:53.732Z,0.00
2023-03-04T01:46:53.740Z,0.00
2023-03-04T01:47:53.797Z,0.00
2023-03-04T01:48:54.039Z,0.00
2023-03-04T01:49:53.686Z,0.00
2023-03-04T01:50:53.792Z,0.00
2023-03-04T01:51:53.681Z,0.00
2023-03-04T01:52:53.715Z,0.00
2023-03-04T01:53:53.707Z,0.00
2023-03-04T01:54:53.681Z,0.00
2023-03-04T01:55:53.658Z,0.00
2023-03-04T01:56:53.637Z,0.00
2023-03-04T01:57:53.674Z,0.00
2023-03-04T01:58:53.708Z,0.00
2023-03-04T01:59:53.605Z,0.00
2023-03-04T02:00:53.615Z,0.00
2023-03-04T02:01:53.652Z,0.00
2023-03-04T02:02:53.605Z,0.00
2023-03-04T02:03:53.656Z,0.00
2023-03-04T02:04:53.582Z,0.00
2023-03-04T02:05:53.595Z,0.00
2023-03-04T02:06:53.613Z,0.00
2023-03-04T02:07:53.559Z,0.00
2023-03-04T02:08:53.604Z,0.00
2023-03-04T02:09:53.533Z,0.00
2023-03-04T02:10:53.544Z,0.00
2023-03-04T02:11:53.528Z,0.00
2023-03-04T02:12:53.518Z,0.00
2023-03-04T02:13:53.518Z,0.00
2023-03-04T02:14:53.518Z,0.00
2023-03-04T02:15:53.520Z,0.00
2023-03-04T02:16:53.478Z,0.00
2023-03-04T02:17:53.475Z,0.00
2023-03-04T02:18:54.060Z,0.00
2023-03-04T02:19:53.562Z,0.00
2023-03-04T02:20:53.446Z,0.00
2023-03-04T02:21:53.459Z,0.00
2023-03-04T02:22:54.242Z,0.00
2023-03-04T02:23:53.554Z,0.00
2023-03-04T02:24:53.431Z,0.00
2023-03-04T02:25:53.443Z,0.00
2023-03-04T02:26:53.421Z,0.00
2023-03-04T02:27:53.401Z,0.00
2023-03-04T02:28:53.416Z,0.00
2023-03-04T02:29:53.391Z,0.00
2023-03-04T02:30:53.410Z,0.00
2023-03-04T02:31:53.378Z,0.00
2023-03-04T02:32:53.356Z,0.00
2023-03-04T02:33:53.357Z,0.00
2023-03-04T02:34:54.173Z,0.00
2023-03-04T02:35:53.410Z,0.00
2023-03-04T02:36:53.326Z,0.00
2023-03-04T02:37:53.334Z,0.00
2023-03-04T02:38:53.324Z,0.00
2023-03-04T02:39:53.302Z,0.00
2023-03-04T02:40:53.301Z,0.00
2023-03-04T02:41:53.323Z,0.00
2023-03-04T02:42:53.702Z,0.00
2023-03-04T02:43:53.279Z,0.00
2023-03-04T02:44:53.271Z,0.00
2023-03-04T02:45:53.258Z,0.00
2023-03-04T02:46:53.356Z,0.00
2023-03-04T02:47:53.721Z,0.00
2023-03-04T02:48:53.256Z,0.00
2023-03-04T02:49:53.253Z,0.00
2023-03-04T02:50:53.231Z,0.00
2023-03-04T02:51:53.288Z,0.00
2023-03-04T02:52:53.217Z,0.00
2023-03-04T02:53:53.299Z,0.00
2023-03-04T02:54:53.198Z,0.00
2023-03-04T02:55:53.201Z,0.00
2023-03-04T02:56:54.176Z,0.00
2023-03-04T02:57:53.194Z,0.00
2023-03-04T02:58:53.194Z,0.00
2023-03-04T02:59:53.175Z,0.00
2023-03-04T03:00:53.157Z,0.00
2023-03-04T03:01:53.330Z,0.00
2023-03-04T03:02:53.194Z,0.00
2023-03-04T03:03:53.177Z,0.00
2023-03-04T03:04:53.114Z,0.00
2023-03-04T03:05:53.142Z,0.00
2023-03-04T03:06:53.121Z,0.00
2023-03-04T03:07:53.225Z,0.00
2023-03-04T03:08:53.104Z,0.00
2023-03-04T03:09:53.087Z,0.00
2023-03-04T03:10:53.078Z,0.00
2023-03-04T03:11:53.101Z,0.00
2023-03-04T03:12:53.116Z,0.00
2023-03-04T03:13:53.114Z,0.00
2023-03-04T03:14:53.078Z,0.00
2023-03-04T03:15:53.116Z,0.00
2023-03-04T03:16:53.043Z,0.00
2023-03-04T03:17:53.029Z,0.00
2023-03-04T03:18:53.043Z,0.00
2023-03-04T03:19:53.089Z,0.00
2023-03-04T03:20:53.000Z,0.00
2023-03-04T03:21:52.996Z,0.00
2023-03-04T03:22:52.978Z,0.00
2023-03-04T03:23:52.994Z,0.00
2023-03-04T03:24:53.022Z,0.00
2023-03-04T03:25:52.974Z,0.00
2023-03-04T03:26:52.966Z,0.00
2023-03-04T03:27:53.066Z,0.00
2023-03-04T03:28:52.950Z,0.00
2023-03-04T03:29:52.928Z,0.00
2023-03-04T03:30:53.058Z,0.00
2023-03-04T03:31:53.017Z,0.00
2023-03-04T03:32:52.963Z,0.00
2023-03-04T03:33:52.898Z,0.00
2023-03-04T03:34:53.032Z,0.00
2023-03-04T03:35:52.989Z,0.00
2023-03-04T03:36:52.911Z,0.00
2023-03-04T03:37:52.992Z,0.00
2023-03-04T03:38:52.885Z,0.00
2023-03-04T03:39:52.867Z,0.00
2023-03-04T03:40:52.837Z,0.00
2023-03-04T03:41:52.881Z,0.00
2023-03-04T03:42:52.841Z,0.00
2023-03-04T03:43:53.500Z,0.00
2023-03-04T03:44:52.806Z,0.00
2023-03-04T03:45:52.874Z,0.00
2023-03-04T03:46:52.812Z,0.00
2023-03-04T04:02:53.367Z,0.00
2023-03-04T04:03:53.302Z,0.00
2023-03-04T04:04:53.300Z,0.00
2023-03-04T04:05:53.278Z,0.00
2023-03-04T04:06:53.294Z,0.00
2023-03-04T04:07:54.138Z,0.00
2023-03-04T04:08:53.280Z,0.00
2023-03-04T04:09:53.237Z,0.00
2023-03-04T04:10:53.250Z,0.00
2023-03-04T04:11:53.247Z,0.00
2023-03-04T04:12:53.247Z,0.00
2023-03-04T04:13:53.236Z,0.00
2023-03-04T04:14:53.217Z,0.00
2023-03-04T04:15:54.350Z,0.00
2023-03-04T04:16:54.364Z,0.00
2023-03-04T04:17:54.336Z,0.00
2023-03-04T04:18:54.350Z,0.00
2023-03-04T04:19:54.324Z,0.00
2023-03-04T04:20:54.344Z,0.00
2023-03-04T04:21:54.319Z,0.00
2023-03-04T04:22:54.328Z,0.00
2023-03-04T04:23:54.292Z,0.00
2023-03-04T04:24:55.264Z,0.00
2023-03-04T04:25:54.278Z,0.00
2023-03-04T04:27:26.962Z,0.00
2023-03-04T04:27:54.243Z,0.00
2023-03-04T04:28:54.256Z,0.00
2023-03-04T04:29:54.247Z,0.00
2023-03-04T04:30:54.277Z,0.00
2023-03-04T04:31:54.240Z,0.00
2023-03-04T04:32:54.232Z,0.00
2023-03-04T04:33:54.217Z,0.00
2023-03-04T04:34:54.204Z,0.00
2023-03-04T04:36:26.509Z,0.00
2023-03-04T04:37:27.006Z,0.00
2023-03-04T04:37:54.200Z,0.00
2023-03-04T04:38:54.268Z,0.00
2023-03-04T04:39:54.181Z,0.00
2023-03-04T04:40:54.144Z,0.00
2023-03-04T04:41:54.187Z,0.00
2023-03-04T04:42:54.191Z,0.00
2023-03-04T04:43:55.087Z,0.00
2023-03-04T04:44:54.139Z,0.00
2023-03-04T04:45:54.187Z,0.00
2023-03-04T04:46:54.106Z,0.00
2023-03-04T04:47:54.139Z,0.00
2023-03-04T04:48:54.102Z,0.00
2023-03-04T04:49:54.113Z,0.00
2023-03-04T04:50:54.066Z,0.00
2023-03-04T04:51:54.089Z,0.00
2023-03-04T04:52:54.133Z,0.00
2023-03-04T04:53:54.059Z,0.00
2023-03-04T04:54:54.054Z,0.00
2023-03-04T04:55:54.029Z,0.00
2023-03-04T04:56:54.036Z,0.00
2023-03-04T04:57:54.022Z,0.00
2023-03-04T04:58:54.015Z,0.00
2023-03-04T04:59:54.002Z,0.00
2023-03-04T05:00:54.011Z,0.00
2023-03-04T05:01:54.091Z,0.00
2023-03-04T05:02:54.007Z,0.00
2023-03-04T05:03:53.996Z,0.00
2023-03-04T05:04:53.971Z,0.00
2023-03-04T05:05:53.947Z,0.00
2023-03-04T05:06:53.948Z,0.00
2023-03-04T05:07:54.037Z,0.00
2023-03-04T05:08:53.990Z,0.00
2023-03-04T05:09:54.205Z,0.00
2023-03-04T05:10:53.938Z,0.00
2023-03-04T05:11:53.917Z,0.00
2023-03-04T05:12:53.902Z,0.00
2023-03-04T05:13:53.903Z,0.00
2023-03-04T05:14:53.926Z,0.00
2023-03-04T05:15:54.104Z,0.00
2023-03-04T05:16:53.886Z,0.00
2023-03-04T05:17:53.901Z,0.00
2023-03-04T05:18:53.873Z,0.00
2023-03-04T05:19:53.906Z,0.00
2023-03-04T05:20:53.845Z,0.00
2023-03-04T05:21:53.935Z,0.00
2023-03-04T05:22:53.850Z,0.00
2023-03-04T05:23:53.843Z,0.00
2023-03-04T05:24:53.851Z,0.00
2023-03-04T05:25:55.480Z,0.00
2023-03-04T05:26:53.902Z,0.00
2023-03-04T05:27:53.978Z,0.00
2023-03-04T05:28:53.792Z,0.00
2023-03-04T05:29:53.804Z,0.00
2023-03-04T05:30:55.124Z,0.00
2023-03-04T05:31:53.774Z,0.00
2023-03-04T05:32:53.770Z,0.00
2023-03-04T05:33:53.783Z,0.00
2023-03-04T05:34:53.871Z,0.00
2023-03-04T05:35:53.838Z,0.00
2023-03-04T05:36:53.759Z,0.00
2023-03-04T05:37:53.746Z,4.00
2023-03-04T05:38:53.759Z,0.00
2023-03-04T05:39:53.745Z,0.00
2023-03-04T05:40:53.759Z,4.00
2023-03-04T05:41:53.734Z,4.00
2023-03-04T05:42:53.741Z,4.00
2023-03-04T05:43:53.705Z,4.00
2023-03-04T05:44:53.711Z,4.00
2023-03-04T05:45:53.713Z,4.00
2023-03-04T05:46:53.811Z,4.00
2023-03-04T05:47:53.716Z,4.00
2023-03-04T05:48:53.639Z,8.00
2023-03-04T05:49:53.722Z,8.00
2023-03-04T05:50:53.670Z,12.00
2023-03-04T05:51:53.669Z,12.00
2023-03-04T05:52:53.643Z,12.00
2023-03-04T05:53:53.636Z,12.00
2023-03-04T05:54:53.646Z,16.00
2023-03-04T05:55:53.603Z,20.00
2023-03-04T05:56:53.603Z,20.00
2023-03-04T05:57:53.610Z,20.00
2023-03-04T05:58:53.605Z,28.00
2023-03-04T05:59:53.735Z,32.00
2023-03-04T06:00:53.579Z,36.00
2023-03-04T06:01:53.598Z,40.00
2023-03-04T06:02:53.621Z,44.00
2023-03-04T06:03:53.612Z,48.00
2023-03-04T06:04:53.541Z,52.00
2023-03-04T06:05:53.568Z,56.00
2023-03-04T06:06:53.571Z,60.00
2023-03-04T06:07:53.534Z,64.00
2023-03-04T06:08:53.495Z,72.00
2023-03-04T06:09:53.502Z,76.00
2023-03-04T06:10:53.527Z,84.00
2023-03-04T06:11:53.513Z,88.00
2023-03-04T06:12:53.512Z,92.00
2023-03-04T06:13:53.509Z,96.00
2023-03-04T06:14:53.472Z,104.00
2023-03-04T06:15:53.525Z,112.00
2023-03-04T06:16:53.472Z,120.00
2023-03-04T06:17:53.515Z,124.00
2023-03-04T06:18:53.450Z,132.00
2023-03-04T06:19:53.423Z,136.00
2023-03-04T06:20:53.411Z,144.00
2023-03-04T06:21:53.439Z,152.00
2023-03-04T06:22:53.439Z,152.00
2023-03-04T06:23:53.432Z,160.00
2023-03-04T06:24:53.410Z,168.00
2023-03-04T06:25:53.396Z,176.00
2023-03-04T06:26:53.417Z,184.00
2023-03-04T06:27:55.146Z,196.00
2023-03-04T06:28:53.340Z,208.00
2023-03-04T06:29:53.443Z,216.00
2023-03-04T06:30:53.418Z,220.00
2023-03-04T06:31:53.405Z,228.00
2023-03-04T06:32:53.346Z,236.00
2023-03-04T06:33:53.308Z,248.00
2023-03-04T06:34:53.350Z,252.00
2023-03-04T06:35:53.390Z,260.00
2023-03-04T06:36:53.336Z,272.00
2023-03-04T06:37:53.371Z,280.00
2023-03-04T06:38:53.276Z,284.00
2023-03-04T06:39:53.280Z,292.00
2023-03-04T06:40:55.338Z,296.00
2023-03-04T06:41:53.274Z,304.00
2023-03-04T06:42:53.261Z,312.00
2023-03-04T06:43:53.241Z,316.00
2023-03-04T06:44:53.291Z,324.00
2023-03-04T06:45:53.290Z,328.00
2023-03-04T06:46:53.310Z,336.00
2023-03-04T06:47:53.234Z,352.00
2023-03-04T06:48:53.197Z,372.00
2023-03-04T06:49:53.211Z,384.00
2023-03-04T06:50:53.211Z,396.00
2023-03-04T06:51:53.223Z,404.00
2023-03-04T06:52:53.235Z,412.00
2023-03-04T06:53:53.177Z,420.00
2023-03-04T06:54:53.292Z,432.00
2023-03-04T06:55:53.241Z,436.00
2023-03-04T06:56:53.160Z,444.00
2023-03-04T06:57:53.173Z,452.00
2023-03-04T06:58:53.141Z,460.00
2023-03-04T06:59:53.133Z,468.00
2023-03-04T07:00:53.204Z,476.00
2023-03-04T07:01:53.092Z,484.00
2023-03-04T07:02:55.125Z,496.00
2023-03-04T07:03:54.122Z,516.00
2023-03-04T07:04:53.092Z,520.00
2023-03-04T07:05:53.148Z,528.00
2023-03-04T07:06:53.076Z,532.00
2023-03-04T07:07:53.124Z,536.00
2023-03-04T07:08:53.084Z,548.00
2023-03-04T07:09:53.069Z,568.00
2023-03-04T07:10:53.039Z,584.00
2023-03-04T07:11:53.048Z,600.00
2023-03-04T07:12:53.189Z,624.00
2023-03-04T07:13:53.117Z,648.00
2023-03-04T07:14:53.034Z,660.00
2023-03-04T07:15:53.015Z,668.00
2023-03-04T07:16:52.999Z,680.00
2023-03-04T07:17:52.997Z,688.00
2023-03-04T07:18:52.993Z,700.00
2023-03-04T07:19:53.009Z,720.00
2023-03-04T07:20:52.970Z,736.00
2023-03-04T07:21:52.986Z,752.00
2023-03-04T07:22:53.009Z,780.00
2023-03-04T07:23:52.973Z,792.00
2023-03-04T07:24:52.972Z,800.00
2023-03-04T07:25:52.922Z,812.00
2023-03-04T07:26:52.906Z,824.00
2023-03-04T07:27:53.927Z,812.00
2023-03-04T07:28:52.932Z,804.00
2023-03-04T07:29:52.932Z,816.00
2023-03-04T07:30:52.930Z,832.00
2023-03-04T07:31:53.832Z,836.00
2023-03-04T07:32:53.867Z,864.00
2023-03-04T07:33:52.892Z,872.00
2023-03-04T07:34:53.506Z,856.00
2023-03-04T07:35:52.988Z,860.00
2023-03-04T07:36:52.867Z,864.00
2023-03-04T07:37:52.852Z,856.00
2023-03-04T07:38:52.882Z,860.00
2023-03-04T07:39:52.893Z,884.00
2023-03-04T07:40:52.805Z,908.00
2023-03-04T07:41:52.817Z,892.00
2023-03-04T07:42:52.836Z,880.00
2023-03-04T07:43:52.837Z,888.00
2023-03-04T07:44:52.794Z,904.00
2023-03-04T07:45:52.867Z,900.00
2023-03-04T07:46:52.779Z,892.00
2023-03-04T07:47:52.841Z,908.00
2023-03-04T07:48:52.821Z,912.00
2023-03-04T07:49:52.758Z,904.00
2023-03-04T07:50:52.775Z,900.00
2023-03-04T07:51:52.734Z,888.00
2023-03-04T07:52:52.752Z,884.00
2023-03-04T07:53:52.810Z,892.00
2023-03-04T07:54:52.785Z,936.00
2023-03-04T07:55:52.754Z,972.00
2023-03-04T07:56:52.682Z,980.00
2023-03-04T07:57:52.704Z,972.00
2023-03-04T07:58:52.701Z,976.00
2023-03-04T07:59:52.679Z,980.00
2023-03-04T08:00:52.698Z,996.00
2023-03-04T08:01:52.659Z,1016.00
2023-03-04T08:02:52.688Z,1044.00
2023-03-04T08:03:52.703Z,1072.00
2023-03-04T08:04:52.650Z,1100.00
2023-03-04T08:05:52.636Z,1120.00
2023-03-04T08:06:52.625Z,1148.00
2023-03-04T08:07:52.646Z,1168.00
2023-03-04T08:08:52.632Z,1192.00
2023-03-04T08:09:53.140Z,1224.00
2023-03-04T08:10:52.603Z,1240.00
2023-03-04T08:11:52.585Z,1228.00
2023-03-04T08:12:52.715Z,1220.00
2023-03-04T08:13:52.592Z,1224.00
2023-03-04T08:14:52.589Z,1236.00
2023-03-04T08:15:52.603Z,1252.00
2023-03-04T08:16:52.574Z,1280.00
2023-03-04T08:17:52.532Z,1332.00
2023-03-04T08:18:52.540Z,1368.00
2023-03-04T08:19:52.665Z,1392.00
2023-03-04T08:20:52.560Z,1468.00
2023-03-04T08:21:52.534Z,1436.00
2023-03-04T08:22:52.540Z,1468.00
2023-03-04T08:23:52.597Z,1524.00
2023-03-04T08:24:52.540Z,1564.00
2023-03-04T08:25:52.594Z,1568.00
2023-03-04T08:26:52.468Z,1540.00
2023-03-04T08:27:52.468Z,1528.00
2023-03-04T08:28:52.451Z,1532.00
2023-03-04T08:29:52.472Z,1556.00
2023-03-04T08:30:52.507Z,1592.00
2023-03-04T08:31:52.550Z,1608.00
2023-03-04T08:32:52.459Z,1636.00
2023-03-04T08:33:52.469Z,1632.00
2023-03-04T08:34:52.442Z,1660.00
2023-03-04T08:35:52.485Z,1656.00
2023-03-04T08:36:52.439Z,1624.00
2023-03-04T08:37:52.380Z,1624.00
2023-03-04T08:38:52.385Z,1620.00
2023-03-04T08:39:52.373Z,1624.00
2023-03-04T08:40:52.465Z,1592.00
2023-03-04T08:41:52.360Z,1576.00
2023-03-04T08:42:52.389Z,1608.00
2023-03-04T08:43:52.332Z,1600.00
2023-03-04T08:44:52.331Z,1576.00
2023-03-04T08:45:52.370Z,1552.00
2023-03-04T08:46:52.319Z,1536.00
2023-03-04T08:47:52.342Z,1548.00
2023-03-04T08:48:52.324Z,1620.00
2023-03-04T08:49:52.305Z,1628.00
2023-03-04T08:50:52.360Z,1652.00
2023-03-04T08:51:52.539Z,1640.00
2023-03-04T08:52:52.280Z,1640.00
2023-03-04T08:53:52.398Z,1636.00
2023-03-04T08:54:52.281Z,1620.00
2023-03-04T08:55:52.362Z,1628.00
2023-03-04T08:56:52.374Z,1676.00
2023-03-04T08:57:52.229Z,1716.00
2023-03-04T08:58:52.261Z,1704.00
2023-03-04T08:59:52.237Z,1712.00
2023-03-04T09:00:52.226Z,1704.00
2023-03-04T09:01:52.325Z,1716.00
2023-03-04T09:02:52.202Z,1756.00
2023-03-04T09:03:52.288Z,1796.00
2023-03-04T09:04:52.179Z,1864.00
2023-03-04T09:05:52.161Z,1944.00
2023-03-04T09:06:54.078Z,2036.00
2023-03-04T09:07:53.164Z,2100.00
2023-03-04T09:08:53.193Z,2088.00
2023-03-04T09:09:52.217Z,2164.00
2023-03-04T09:10:52.139Z,2200.00
2023-03-04T09:11:52.207Z,2272.00
2023-03-04T09:12:52.129Z,2392.00
2023-03-04T09:13:52.265Z,2528.00
2023-03-04T09:15:08.397Z,2632.00
2023-03-04T09:15:54.274Z,2584.00
2023-03-04T09:16:52.114Z,2512.00
2023-03-04T09:17:52.108Z,2440.00
2023-03-04T09:18:52.269Z,2464.00
2023-03-04T09:19:52.094Z,2500.00
2023-03-04T09:20:52.129Z,2508.00
2023-03-04T09:21:52.109Z,2404.00
2023-03-04T09:22:52.061Z,2324.00
2023-03-04T09:23:52.132Z,2300.00
2023-03-04T09:24:52.049Z,2332.00
2023-03-04T09:25:52.077Z,2368.00
2023-03-04T09:26:52.036Z,2428.00
2023-03-04T09:27:52.078Z,2616.00
2023-03-04T09:28:52.048Z,2740.00
2023-03-04T09:29:52.006Z,2868.00
2023-03-04T09:30:51.990Z,2932.00
2023-03-04T09:31:51.983Z,3120.00
2023-03-04T09:32:52.006Z,3268.00
2023-03-04T09:33:52.044Z,3416.00
2023-03-04T09:34:51.970Z,3784.00
2023-03-04T09:35:52.003Z,4288.00
2023-03-04T09:36:51.968Z,4888.00
2023-03-04T09:38:24.571Z,5228.00
2023-03-04T09:38:51.944Z,5268.00
2023-03-04T09:40:23.939Z,5304.00
2023-03-04T09:40:51.958Z,5464.00
2023-03-04T09:41:51.921Z,5728.00
2023-03-04T09:42:52.535Z,5896.00
2023-03-04T09:43:51.898Z,5996.00
2023-03-04T09:44:51.927Z,6256.00
2023-03-04T09:45:51.868Z,6660.00
2023-03-04T09:46:51.984Z,6920.00
2023-03-04T09:47:51.859Z,6896.00
2023-03-04T09:48:51.874Z,6888.00
2023-03-04T09:49:51.996Z,6828.00
2023-03-04T09:50:51.850Z,6692.00
2023-03-04T09:51:51.830Z,6656.00
2023-03-04T09:52:51.841Z,6816.00
2023-03-04T09:53:51.829Z,6824.00
2023-03-04T09:54:51.814Z,6724.00
2023-03-04T09:55:51.783Z,6428.00
2023-03-04T09:56:51.821Z,6004.00
2023-03-04T09:57:51.779Z,5632.00
2023-03-04T09:58:51.760Z,5476.00
2023-03-04T09:59:51.784Z,5324.00
2023-03-04T10:00:52.046Z,5112.00
2023-03-04T10:01:51.769Z,5048.00
2023-03-04T10:02:51.827Z,4932.00
2023-03-04T10:03:51.889Z,4748.00
2023-03-04T10:04:51.832Z,4688.00
2023-03-04T10:06:24.685Z,4552.00
2023-03-04T10:07:24.193Z,4492.00
2023-03-04T10:07:51.684Z,4420.00
2023-03-04T10:08:51.698Z,4256.00
2023-03-04T10:09:51.725Z,4068.00
2023-03-04T10:10:51.739Z,4000.00
2023-03-04T10:11:51.672Z,3940.00
2023-03-04T10:12:51.677Z,3732.00
2023-03-04T10:13:51.647Z,3620.00
2023-03-04T10:14:51.633Z,3528.00
2023-03-04T10:15:51.698Z,3540.00
2023-03-04T10:16:51.637Z,3548.00
2023-03-04T10:17:51.642Z,3556.00
2023-03-04T10:18:51.610Z,3500.00
2023-03-04T10:19:51.677Z,3564.00
2023-03-04T10:20:51.621Z,3660.00
2023-03-04T10:21:51.600Z,3768.00
2023-03-04T10:22:51.580Z,3784.00
2023-03-04T10:23:52.316Z,3852.00
2023-03-04T10:24:51.561Z,4148.00
2023-03-04T10:25:51.549Z,4340.00
2023-03-04T10:27:23.476Z,4312.00
2023-03-04T10:27:51.610Z,4344.00
2023-03-04T10:28:51.533Z,4548.00
2023-03-04T10:29:51.529Z,5024.00
2023-03-04T10:30:51.500Z,5576.00
2023-03-04T10:31:51.592Z,5808.00
2023-03-04T10:32:51.519Z,5980.00
2023-03-04T10:33:51.470Z,6500.00
2023-03-04T10:34:51.485Z,6696.00
2023-03-04T10:35:51.464Z,6492.00
2023-03-04T10:36:51.451Z,6316.00
2023-03-04T10:37:51.458Z,6188.00
2023-03-04T10:38:51.437Z,6016.00
2023-03-04T10:39:51.426Z,5720.00
2023-03-04T10:40:51.441Z,5524.00
2023-03-04T10:41:51.473Z,5356.00
2023-03-04T10:42:51.395Z,5192.00
2023-03-04T10:43:51.411Z,5036.00
2023-03-04T10:44:51.375Z,5092.00
2023-03-04T10:45:51.418Z,4932.00
2023-03-04T10:46:51.369Z,4608.00
2023-03-04T10:47:51.420Z,4400.00
2023-03-04T10:48:51.374Z,4428.00
2023-03-04T10:49:52.300Z,4436.00
2023-03-04T10:50:51.341Z,4300.00
2023-03-04T10:51:51.345Z,4232.00
2023-03-04T10:52:51.333Z,4328.00
2023-03-04T10:53:51.305Z,4280.00
2023-03-04T10:54:51.319Z,4360.00
2023-03-04T10:55:51.310Z,4360.00
2023-03-04T10:56:51.296Z,4348.00
2023-03-04T10:57:51.302Z,4476.00
2023-03-04T10:58:51.273Z,4688.00
2023-03-04T10:59:51.291Z,4728.00
2023-03-04T11:00:51.271Z,4672.00
2023-03-04T11:01:51.270Z,4628.00
2023-03-04T11:02:51.225Z,4580.00
2023-03-04T11:03:51.277Z,4416.00
2023-03-04T11:04:51.282Z,4344.00
2023-03-04T11:05:51.215Z,4232.00
2023-03-04T11:06:51.211Z,4108.00
2023-03-04T11:07:56.733Z,4108.00
2023-03-04T11:08:53.188Z,4248.00
2023-03-04T11:09:51.242Z,4300.00
2023-03-04T11:10:51.214Z,4268.00
2023-03-04T11:11:51.212Z,4308.00
2023-03-04T11:12:51.174Z,4384.00
2023-03-04T11:13:51.154Z,4408.00
2023-03-04T11:14:51.159Z,4440.00
2023-03-04T11:15:51.178Z,4416.00
2023-03-04T11:16:51.165Z,4300.00
2023-03-04T11:17:51.130Z,4096.00
2023-03-04T11:18:51.136Z,3980.00
2023-03-04T11:19:51.119Z,3908.00
2023-03-04T11:20:51.109Z,3920.00
2023-03-04T11:21:51.716Z,3992.00
2023-03-04T11:22:51.076Z,4032.00
2023-03-04T11:23:51.084Z,4212.00
2023-03-04T11:24:51.099Z,4328.00
2023-03-04T11:25:51.079Z,4356.00
2023-03-04T11:26:51.068Z,4260.00
2023-03-04T11:27:51.069Z,4328.00
2023-03-04T11:28:51.029Z,4172.00
2023-03-04T11:29:51.032Z,3944.00
2023-03-04T11:30:51.059Z,3740.00
2023-03-04T11:31:51.044Z,3632.00
2023-03-04T11:32:51.040Z,3640.00
2023-03-04T11:33:51.046Z,3644.00
2023-03-04T11:34:51.026Z,3908.00
2023-03-04T11:35:50.982Z,4536.00
2023-03-04T11:36:51.248Z,4396.00
2023-03-04T11:37:50.993Z,4180.00
2023-03-04T11:38:50.964Z,4096.00
2023-03-04T11:39:50.984Z,4116.00
2023-03-04T11:40:50.954Z,4448.00
2023-03-04T11:41:50.956Z,4960.00
2023-03-04T11:42:50.995Z,5364.00
2023-03-04T11:43:50.963Z,5760.00
2023-03-04T11:44:50.959Z,6100.00
2023-03-04T11:45:50.950Z,5952.00
2023-03-04T11:46:50.933Z,5548.00
2023-03-04T11:47:51.067Z,5164.00
2023-03-04T11:48:50.965Z,4704.00
2023-03-04T11:49:50.915Z,4280.00
2023-03-04T11:50:50.915Z,4144.00
2023-03-04T11:51:50.899Z,4016.00
2023-03-04T11:52:50.936Z,3932.00
2023-03-04T11:53:50.927Z,3864.00
2023-03-04T11:54:50.897Z,3592.00
2023-03-04T11:55:50.887Z,3372.00
2023-03-04T11:56:50.848Z,3200.00
2023-03-04T11:57:50.863Z,3148.00
2023-03-04T11:58:50.879Z,3200.00
2023-03-04T11:59:50.839Z,3064.00
2023-03-04T12:00:50.842Z,2972.00
2023-03-04T12:01:50.827Z,2944.00
2023-03-04T12:02:50.808Z,2872.00
2023-03-04T12:03:50.924Z,2864.00
2023-03-04T12:04:50.838Z,2936.00
2023-03-04T12:05:50.795Z,3064.00
2023-03-04T12:06:50.786Z,3192.00
2023-03-04T12:07:50.767Z,3148.00
2023-03-04T12:08:50.766Z,3228.00
2023-03-04T12:09:50.767Z,3300.00
2023-03-04T12:10:50.964Z,3320.00
2023-03-04T12:11:50.774Z,3180.00
2023-03-04T12:12:50.718Z,3020.00
2023-03-04T12:13:50.725Z,3084.00
2023-03-04T12:14:50.712Z,3120.00
2023-03-04T12:15:50.771Z,3196.00
2023-03-04T12:16:50.693Z,3308.00
2023-03-04T12:17:50.767Z,3504.00
2023-03-04T12:18:50.834Z,3728.00
2023-03-04T12:19:50.671Z,4004.00
2023-03-04T12:20:50.670Z,4308.00
2023-03-04T12:21:50.656Z,4308.00
2023-03-04T12:22:50.650Z,4164.00
2023-03-04T12:23:50.700Z,4000.00
2023-03-04T12:24:50.650Z,3932.00
2023-03-04T12:25:50.661Z,3756.00
2023-03-04T12:26:50.636Z,3564.00
2023-03-04T12:27:50.613Z,3416.00
2023-03-04T12:28:50.622Z,3252.00
2023-03-04T12:29:50.609Z,3084.00
2023-03-04T12:30:50.645Z,2920.00
2023-03-04T12:31:50.628Z,2764.00
2023-03-04T12:32:50.622Z,2604.00
2023-03-04T12:33:50.587Z,2452.00
2023-03-04T12:34:50.558Z,2384.00
2023-03-04T12:35:50.771Z,2360.00
2023-03-04T12:36:50.559Z,2356.00
2023-03-04T12:37:50.558Z,2420.00
2023-03-04T12:38:50.530Z,2676.00
2023-03-04T12:39:50.683Z,2864.00
2023-03-04T12:40:50.599Z,2808.00
2023-03-04T12:41:50.506Z,2752.00
2023-03-04T12:42:50.543Z,2840.00
2023-03-04T12:43:50.544Z,2812.00
2023-03-04T12:44:50.500Z,2712.00
2023-03-04T12:45:50.545Z,2640.00
2023-03-04T12:46:50.538Z,2692.00
2023-03-04T12:47:50.497Z,2752.00
2023-03-04T12:48:50.482Z,2824.00
2023-03-04T12:49:50.486Z,2836.00
2023-03-04T12:50:50.468Z,2804.00
2023-03-04T12:51:50.430Z,2684.00
2023-03-04T12:52:50.432Z,2544.00
2023-03-04T12:53:50.436Z,2452.00
2023-03-04T12:54:50.453Z,2384.00
2023-03-04T12:55:50.422Z,2292.00